Time;durP1;ratioP1;P1;durP2;ratioP2;P2;SDS_P1;SDS_P2;PMS_P1;PMS_P2;Temp;Humidity;BMP_temperature;BMP_pressure;BME280_temperature;BME280_humidity;BME280_pressure;Samples;Min_cycle;Max_cycle;Signal;HPM_P1;HPM_P2
2020/12/20 00:02:37;;;;;;;81.30;32.40;;;;;;;0.21;82.20;99903.80;2305761;77;21252;-64
2020/12/20 00:05:40;;;;;;;77.85;32.28;;;;;;;0.19;82.46;99906.39;2305980;77;21569;-64
2020/12/20 00:08:42;;;;;;;74.35;31.87;;;;;;;0.25;82.33;99907.66;2305709;77;21147;-64
2020/12/20 00:11:44;;;;;;;72.53;29.98;;;;;;;0.31;82.42;99901.19;2306018;77;21729;-64
2020/12/20 00:14:47;;;;;;;75.37;31.15;;;;;;;0.24;82.21;99895.61;2305969;77;21158;-64
2020/12/20 00:17:49;;;;;;;69.35;30.08;;;;;;;0.24;82.20;99902.06;2305766;77;21257;-64
2020/12/20 00:20:52;;;;;;;74.47;30.25;;;;;;;0.27;82.50;99896.05;2306093;77;21098;-64
2020/12/20 00:23:55;;;;;;;76.72;32.53;;;;;;;0.33;82.42;99892.16;2305897;77;21677;-64
2020/12/20 00:26:57;;;;;;;79.50;32.30;;;;;;;0.42;82.19;99892.15;2306230;77;21118;-64
2020/12/20 00:29:59;;;;;;;79.32;31.33;;;;;;;0.46;82.13;99900.31;2273808;77;21288;-64
2020/12/20 00:33:01;;;;;;;78.45;30.75;;;;;;;0.56;82.06;99896.40;2306266;77;21565;-64
2020/12/20 00:36:03;;;;;;;81.72;32.50;;;;;;;0.54;81.82;99892.98;2305916;77;21688;-64
2020/12/20 00:39:05;;;;;;;76.97;30.60;;;;;;;0.51;81.83;99894.69;2305928;77;21724;-64
2020/12/20 00:42:08;;;;;;;73.83;29.90;;;;;;;0.54;81.80;99901.58;2306247;77;21236;-64
2020/12/20 00:45:10;;;;;;;73.45;29.85;;;;;;;0.56;81.77;99895.11;2305960;77;21684;-64
2020/12/20 00:48:12;;;;;;;75.05;28.62;;;;;;;0.48;81.68;99898.58;2274928;77;21277;-64
2020/12/20 00:51:14;;;;;;;74.53;29.23;;;;;;;0.47;81.83;99898.58;2306055;77;21709;-64
2020/12/20 00:54:16;;;;;;;65.87;27.20;;;;;;;0.45;81.89;99899.03;2306432;77;21154;-64
2020/12/20 00:57:19;;;;;;;63.13;26.10;;;;;;;0.43;81.90;99891.30;2306006;77;21107;-64
2020/12/20 01:00:21;;;;;;;68.95;27.60;;;;;;;0.41;82.01;99886.99;2306385;77;21130;-64
2020/12/20 01:03:23;;;;;;;71.82;27.25;;;;;;;0.41;82.04;99893.45;2306056;77;21676;-64
2020/12/20 01:06:25;;;;;;;75.70;28.57;;;;;;;0.35;82.04;99885.28;2306220;77;21288;-64
2020/12/20 01:09:27;;;;;;;68.12;27.42;;;;;;;0.29;82.26;99885.30;2305843;77;21275;-64
2020/12/20 01:12:29;;;;;;;66.65;26.68;;;;;;;0.29;82.24;99888.73;2306032;77;21268;-64
2020/12/20 01:15:31;;;;;;;66.20;27.07;;;;;;;0.36;82.33;99887.02;2306305;77;21280;-64
2020/12/20 01:18:33;;;;;;;66.85;26.17;;;;;;;0.37;82.26;99889.15;2306158;77;21113;-64
2020/12/20 01:21:35;;;;;;;69.27;26.50;;;;;;;0.41;82.32;99892.16;2306370;77;21146;-64
2020/12/20 01:24:38;;;;;;;62.40;24.15;;;;;;;0.40;82.33;99890.42;2306184;77;21284;-64
2020/12/20 01:27:40;;;;;;;62.98;24.85;;;;;;;0.33;82.28;99885.70;2306106;77;21562;-64
2020/12/20 01:30:42;;;;;;;65.72;24.37;;;;;;;0.29;82.36;99887.44;2306122;77;21256;-64
2020/12/20 01:33:44;;;;;;;63.25;25.75;;;;;;;0.20;82.43;99884.02;2306237;77;21268;-64
2020/12/20 01:36:46;;;;;;;67.45;25.37;;;;;;;0.23;82.76;99879.73;2306173;77;21276;-64
2020/12/20 01:39:48;;;;;;;61.90;24.23;;;;;;;0.25;82.73;99876.70;2306348;77;21118;-64
2020/12/20 01:42:50;;;;;;;58.40;23.73;;;;;;;0.17;82.63;99866.81;2305979;77;21731;-64
2020/12/20 01:45:53;;;;;;;58.55;23.30;;;;;;;0.14;83.04;99857.79;2306248;77;21130;-64
2020/12/20 01:48:55;;;;;;;55.00;22.82;;;;;;;0.14;82.85;99859.08;2306065;77;21728;-64
2020/12/20 01:51:57;;;;;;;60.08;23.00;;;;;;;0.13;82.88;99859.94;2306169;77;21260;-64
2020/12/20 01:55:00;;;;;;;57.62;23.10;;;;;;;0.13;82.99;99854.77;2306214;77;21237;-64
2020/12/20 01:58:02;;;;;;;60.40;23.12;;;;;;;0.19;82.94;99861.23;2306375;77;21106;-64
2020/12/20 02:01:05;;;;;;;57.50;23.18;;;;;;;0.27;82.95;99856.89;2306284;77;21138;-64
2020/12/20 02:04:07;;;;;;;58.25;23.57;;;;;;;0.33;82.73;99864.64;2305685;77;21228;-64
2020/12/20 02:07:09;;;;;;;62.73;23.27;;;;;;;0.32;82.55;99868.52;2306365;77;21272;-64
2020/12/20 02:10:12;;;;;;;66.62;24.00;;;;;;;0.41;82.65;99868.92;2306054;77;21719;-64
2020/12/20 02:13:14;;;;;;;59.13;22.93;;;;;;;0.45;82.61;99879.67;2305859;77;21264;-64
2020/12/20 02:16:16;;;;;;;61.20;23.67;;;;;;;0.47;82.40;99872.77;2306037;77;21739;-64
2020/12/20 02:19:18;;;;;;;53.87;21.93;;;;;;;0.46;82.27;99874.91;2305845;77;21267;-64
2020/12/20 02:22:20;;;;;;;55.70;21.23;;;;;;;0.41;82.09;99872.80;2306334;77;21134;-64
2020/12/20 02:25:22;;;;;;;53.68;20.27;;;;;;;0.37;82.21;99878.37;2305959;77;21272;-64
2020/12/20 02:28:25;;;;;;;58.25;22.73;;;;;;;0.27;82.22;99873.67;2305984;77;21570;-64
2020/12/20 02:31:28;;;;;;;55.55;21.23;;;;;;;0.22;82.43;99879.28;2305846;77;21712;-64
2020/12/20 02:34:30;;;;;;;55.45;23.20;;;;;;;0.19;82.57;99879.30;2306217;77;21301;-64
2020/12/20 02:37:33;;;;;;;55.33;21.85;;;;;;;0.22;82.64;99874.57;2306101;77;21283;-64
2020/12/20 02:40:35;;;;;;;55.52;21.20;;;;;;;0.29;82.81;99882.73;2274909;77;21261;-64
2020/12/20 02:43:37;;;;;;;55.78;21.42;;;;;;;0.33;82.43;99881.41;2306027;77;21138;-64
2020/12/20 02:46:39;;;;;;;54.20;21.17;;;;;;;0.40;82.43;99887.41;2305932;77;21272;-64
2020/12/20 02:49:41;;;;;;;60.78;22.32;;;;;;;0.36;82.38;99894.75;2306242;77;21281;-64
2020/12/20 02:52:43;;;;;;;53.23;21.05;;;;;;;0.34;82.41;99888.30;2305940;77;21284;-64
2020/12/20 02:55:45;;;;;;;51.90;20.27;;;;;;;0.38;82.48;99882.69;2304017;77;21284;-64
2020/12/20 02:58:47;;;;;;;52.88;21.02;;;;;;;0.39;82.16;99883.53;2298367;77;21272;-64
2020/12/20 03:01:50;;;;;;;52.58;20.17;;;;;;;0.33;82.21;99872.38;2277062;77;21261;-64
2020/12/20 03:04:52;;;;;;;49.93;19.52;;;;;;;0.26;82.27;99882.70;2298653;77;21260;-64
2020/12/20 03:07:54;;;;;;;51.80;19.70;;;;;;;0.33;82.57;99872.38;2298839;77;21284;-64
2020/12/20 03:10:56;;;;;;;53.45;20.70;;;;;;;0.36;82.34;99870.23;2298635;77;21725;-64
2020/12/20 03:13:59;;;;;;;52.98;21.17;;;;;;;0.34;82.12;99873.23;2298891;77;21277;-64
2020/12/20 03:17:01;;;;;;;50.03;20.02;;;;;;;0.28;82.12;99872.81;2298616;77;21284;-64
2020/12/20 03:20:03;;;;;;;50.70;20.75;;;;;;;0.25;82.41;99875.41;2298642;77;21257;-64
2020/12/20 03:23:05;;;;;;;51.75;19.92;;;;;;;0.22;82.24;99872.84;2298570;77;21767;-64
2020/12/20 03:26:07;;;;;;;54.75;21.55;;;;;;;0.21;82.50;99869.81;2298879;77;21280;-64
2020/12/20 03:29:09;;;;;;;53.15;20.65;;;;;;;0.29;82.53;99877.13;2298483;77;21696;-64
2020/12/20 03:32:11;;;;;;;55.80;22.07;;;;;;;0.23;82.23;99879.73;2298899;77;21261;-64
2020/12/20 03:35:14;;;;;;;53.85;21.50;;;;;;;0.24;82.41;99871.54;2298629;77;21744;-64
2020/12/20 03:38:16;;;;;;;53.08;21.00;;;;;;;0.25;82.22;99871.53;2298357;77;21294;-64
2020/12/20 03:41:18;;;;;;;52.58;20.52;;;;;;;0.18;82.22;99872.85;2298383;77;21549;-64
2020/12/20 03:44:20;;;;;;;54.48;22.32;;;;;;;0.17;82.33;99869.39;2298896;77;21114;-64
2020/12/20 03:47:23;;;;;;;57.55;23.38;;;;;;;0.16;82.36;99872.86;2298482;77;21705;-64
2020/12/20 03:50:25;;;;;;;57.03;22.17;;;;;;;0.22;82.29;99878.44;2298334;77;21107;-64
2020/12/20 03:53:27;;;;;;;57.30;24.18;;;;;;;0.22;82.33;99870.25;2298638;77;21261;-64
2020/12/20 03:56:29;;;;;;;55.15;21.90;;;;;;;0.26;82.22;99874.96;2298680;77;21261;-64
2020/12/20 03:59:31;;;;;;;61.30;24.25;;;;;;;0.24;82.04;99872.83;2298356;77;21704;-64
2020/12/20 04:02:33;;;;;;;53.45;22.30;;;;;;;0.25;81.94;99870.69;2298391;77;21237;-64
2020/12/20 04:05:36;;;;;;;58.85;23.10;;;;;;;0.20;82.18;99875.83;2298630;77;21747;-64
2020/12/20 04:08:38;;;;;;;62.00;23.35;;;;;;;0.25;82.23;99879.27;2298295;77;21269;-64
2020/12/20 04:11:40;;;;;;;57.48;23.22;;;;;;;0.27;82.12;99890.88;2298845;77;21135;-64
2020/12/20 04:14:43;;;;;;;68.52;24.07;;;;;;;0.19;82.12;99893.91;2298888;77;21130;-64
2020/12/20 04:17:45;;;;;;;66.00;24.47;;;;;;;0.19;82.21;99893.91;2298446;77;21288;-64
2020/12/20 04:20:48;;;;;;;61.65;24.52;;;;;;;0.17;82.31;99893.91;2298740;77;21249;-64
2020/12/20 04:23:50;;;;;;;63.55;24.00;;;;;;;0.15;82.35;99887.45;2298845;77;21253;-64
2020/12/20 04:26:52;;;;;;;;;;;;;;;0.13;82.28;99887.03;2279975;77;21700;-64
2020/12/20 04:29:55;;;;;;;61.25;23.22;;;;;;;0.20;82.44;99886.59;2299013;77;20178;-64
2020/12/20 04:32:57;;;;;;;53.90;23.20;;;;;;;0.23;82.44;99891.75;2298658;77;21680;-64
2020/12/20 04:35:59;;;;;;;59.93;24.18;;;;;;;0.24;82.27;99886.58;2298788;77;21265;-64
2020/12/20 04:39:01;;;;;;;61.18;22.70;;;;;;;0.27;82.28;99890.88;2299014;77;21298;-64
2020/12/20 04:42:03;;;;;;;64.05;24.35;;;;;;;0.27;82.16;99882.70;2298570;77;21253;-64
2020/12/20 04:45:05;;;;;;;61.48;25.72;;;;;;;0.30;82.20;99884.02;2298877;77;21329;-64
2020/12/20 04:48:08;;;;;;;59.98;26.35;;;;;;;0.37;82.19;99885.28;2298617;77;21252;-64
2020/12/20 04:51:10;;;;;;;62.30;25.40;;;;;;;0.41;82.17;99885.70;2299041;77;21253;-64
2020/12/20 04:54:12;;;;;;;60.43;23.57;;;;;;;0.43;81.90;99882.67;2298540;77;21272;-64
2020/12/20 04:57:14;;;;;;;66.80;27.62;;;;;;;0.41;82.00;99880.53;2298662;77;21264;-64
2020/12/20 05:00:16;;;;;;;57.48;24.65;;;;;;;0.40;81.92;99886.55;2299012;77;21280;-64
2020/12/20 05:03:18;;;;;;;65.00;26.25;;;;;;;0.39;81.72;99890.87;2298768;77;21669;-64
2020/12/20 05:06:21;;;;;;;66.05;26.82;;;;;;;0.37;81.84;99892.58;2298540;77;21240;-64
2020/12/20 05:09:23;;;;;;;64.03;26.27;;;;;;;0.38;81.85;99898.17;2298477;77;21272;-64
2020/12/20 05:12:25;;;;;;;72.17;27.42;;;;;;;0.33;81.89;99894.32;2298613;77;21710;-64
2020/12/20 05:15:27;;;;;;;70.08;26.62;;;;;;;0.36;81.87;99894.75;2299006;77;21277;-64
2020/12/20 05:18:29;;;;;;;66.47;24.75;;;;;;;0.37;81.79;99895.60;2298700;77;21696;-64
2020/12/20 05:21:32;;;;;;;64.42;25.40;;;;;;;0.31;81.77;99897.32;2298685;77;21291;-64
2020/12/20 05:24:34;;;;;;;72.65;27.67;;;;;;;0.40;82.11;99902.04;2298518;77;21257;-64
2020/12/20 05:27:36;;;;;;;66.42;24.82;;;;;;;0.52;81.88;99898.15;2298660;77;21748;-64
2020/12/20 05:30:38;;;;;;;69.60;26.50;;;;;;;0.50;81.84;99899.86;2298787;77;21253;-64
2020/12/20 05:33:40;;;;;;;68.57;26.37;;;;;;;0.49;81.72;99905.47;2298900;77;21249;-64
2020/12/20 05:36:42;;;;;;;71.28;27.05;;;;;;;0.45;81.59;99911.94;2298529;77;21242;-64
2020/12/20 05:39:44;;;;;;;70.22;26.77;;;;;;;0.44;81.80;99908.48;2298871;77;21260;-64
2020/12/20 05:42:46;;;;;;;72.00;28.00;;;;;;;0.41;81.75;99908.48;2298709;77;21707;-64
2020/12/20 05:45:48;;;;;;;70.83;25.68;;;;;;;0.37;81.90;99909.36;2298599;77;21248;-64
2020/12/20 05:48:51;;;;;;;71.45;25.35;;;;;;;0.42;81.94;99908.08;2298425;77;21149;-64
2020/12/20 05:51:53;;;;;;;79.42;27.32;;;;;;;0.43;82.10;99911.06;2298475;77;21253;-64
2020/12/20 05:54:55;;;;;;;69.95;25.88;;;;;;;0.58;82.06;99921.36;2298495;77;21284;-64
2020/12/20 05:57:57;;;;;;;64.62;26.23;;;;;;;0.57;81.67;99926.09;2304411;77;21285;-64
2020/12/20 06:00:59;;;;;;;69.65;26.52;;;;;;;0.49;81.65;99927.41;2306135;77;21253;-64
2020/12/20 06:04:01;;;;;;;67.40;27.02;;;;;;;0.55;81.70;99926.95;2306011;77;21256;-64
2020/12/20 06:07:04;;;;;;;73.45;28.50;;;;;;;0.48;81.49;99931.29;2305812;77;21256;-64
2020/12/20 06:10:06;;;;;;;71.25;25.85;;;;;;;0.39;81.55;99932.17;2306305;77;21174;-64
2020/12/20 06:13:08;;;;;;;65.72;24.50;;;;;;;0.36;81.57;99934.77;2305969;77;21723;-64
2020/12/20 06:16:10;;;;;;;;;;;;;;;0.26;81.45;99936.48;2308598;77;21253;-64
2020/12/20 06:19:13;;;;;;;64.75;25.17;;;;;;;0.23;81.68;99939.48;2306354;77;20226;-64
2020/12/20 06:22:15;;;;;;;61.02;24.85;;;;;;;0.21;81.72;99937.35;2306131;77;21130;-64
2020/12/20 06:25:17;;;;;;;66.25;25.80;;;;;;;0.10;81.57;99939.52;2275104;77;21684;-64
2020/12/20 06:28:19;;;;;;;63.00;24.87;;;;;;;0.05;81.94;99943.80;2305770;77;21280;-64
2020/12/20 06:31:22;;;;;;;61.68;22.62;;;;;;;0.15;82.12;99945.52;2305984;77;21565;-64
2020/12/20 06:34:24;;;;;;;68.78;25.37;;;;;;;0.11;81.80;99939.92;2306100;77;21257;-64
2020/12/20 06:37:26;;;;;;;64.90;24.57;;;;;;;0.07;81.65;99942.52;2305785;77;21771;-64
2020/12/20 06:40:28;;;;;;;64.50;24.27;;;;;;;0.09;81.74;99938.23;2305824;77;21292;-64
2020/12/20 06:43:30;;;;;;;64.22;26.20;;;;;;;0.14;81.92;99942.53;2275028;77;21767;-64
2020/12/20 06:46:32;;;;;;;65.25;25.12;;;;;;;0.14;81.77;99945.52;2306056;77;21264;-64
2020/12/20 06:49:34;;;;;;;68.90;27.77;;;;;;;0.18;81.65;99951.55;2306227;77;21110;-64
2020/12/20 06:52:36;;;;;;;64.87;25.68;;;;;;;0.21;81.67;99958.84;2305785;77;21244;-64
2020/12/20 06:55:40;;;;;;;67.90;25.35;;;;;;;0.20;81.52;99954.98;2305912;77;21692;-64
2020/12/20 06:58:42;;;;;;;68.33;25.40;;;;;;;0.13;81.60;99960.56;2298747;77;21284;-64
2020/12/20 07:01:44;;;;;;;68.67;26.12;;;;;;;0.10;81.65;99958.88;2298661;77;21716;-64
2020/12/20 07:04:46;;;;;;;69.35;27.15;;;;;;;0.11;81.85;99957.14;2298595;77;21134;-64
2020/12/20 07:07:48;;;;;;;63.02;25.77;;;;;;;0.20;81.69;99966.59;2298827;77;21261;-64
2020/12/20 07:10:50;;;;;;;70.85;26.80;;;;;;;0.31;81.64;99963.13;2298429;77;21111;-64
2020/12/20 07:13:54;;;;;;;68.75;28.73;;;;;;;0.35;81.55;99962.72;2298849;77;21268;-64
2020/12/20 07:16:56;;;;;;;67.03;27.30;;;;;;;0.33;81.34;99965.71;2275686;77;21260;-64
2020/12/20 07:19:58;;;;;;;68.50;25.95;;;;;;;0.32;81.19;99968.73;2298588;77;21684;-64
2020/12/20 07:23:00;;;;;;;72.97;28.52;;;;;;;0.33;81.19;99965.30;2276101;77;21301;-64
2020/12/20 07:26:03;;;;;;;72.92;26.57;;;;;;;0.37;81.32;99958.84;2298436;77;21229;-64
2020/12/20 07:29:05;;;;;;;75.47;28.62;;;;;;;0.34;80.89;99957.12;2298844;77;21296;-64
2020/12/20 07:32:08;;;;;;;68.28;26.27;;;;;;;0.29;81.16;99961.00;2298203;77;21260;-64
2020/12/20 07:35:12;;;;;;;67.97;29.10;;;;;;;0.30;81.07;99959.27;2298250;77;21115;-64
2020/12/20 07:38:14;;;;;;;68.60;27.70;;;;;;;0.30;81.24;99960.15;2298590;77;21709;-64
2020/12/20 07:41:16;;;;;;;71.45;29.45;;;;;;;0.31;81.29;99957.97;2298628;77;21265;-64
2020/12/20 07:44:19;;;;;;;68.10;28.57;;;;;;;0.30;81.26;99955.39;2298497;77;21111;-64
2020/12/20 07:47:21;;;;;;;65.40;27.22;;;;;;;0.37;81.58;99953.67;2298819;77;21264;-64
2020/12/20 07:50:23;;;;;;;61.00;26.33;;;;;;;0.46;81.28;99955.81;2298457;77;21724;-64
2020/12/20 07:53:26;;;;;;;68.72;26.95;;;;;;;0.40;80.86;99960.97;2298477;77;21608;-64
2020/12/20 07:56:28;;;;;;;63.92;25.37;;;;;;;0.29;81.08;99968.74;2298514;77;21118;-65
2020/12/20 07:59:32;;;;;;;68.97;27.37;;;;;;;0.36;81.32;99967.02;2298507;77;21309;-64
2020/12/20 08:02:34;;;;;;;64.32;25.97;;;;;;;0.39;81.29;99968.72;2298484;77;21264;-64
2020/12/20 08:05:36;;;;;;;66.97;26.42;;;;;;;0.34;81.27;99968.73;2298986;77;21557;-64
2020/12/20 08:08:38;;;;;;;63.48;24.47;;;;;;;0.38;81.37;99968.31;2299027;77;21269;-64
2020/12/20 08:11:41;;;;;;;66.87;27.10;;;;;;;0.40;81.30;99974.31;2298595;77;21087;-64
2020/12/20 08:14:43;;;;;;;66.28;26.45;;;;;;;0.46;81.40;99979.46;2298590;77;21276;-64
2020/12/20 08:17:46;;;;;;;67.87;27.65;;;;;;;0.41;81.19;99984.64;2298666;77;21134;-65
2020/12/20 08:20:49;;;;;;;66.00;27.55;;;;;;;0.42;81.41;99986.37;2298426;77;21248;-64
2020/12/20 08:23:51;;;;;;;62.95;26.48;;;;;;;0.44;81.46;99979.91;2277249;77;21261;-64
2020/12/20 08:26:53;;;;;;;66.60;27.82;;;;;;;0.44;81.51;99979.91;2298637;77;21122;-64
2020/12/20 08:29:56;;;;;;;69.32;28.30;;;;;;;0.54;81.66;99980.77;2298536;77;21582;-64
2020/12/20 08:32:58;;;;;;;64.50;26.80;;;;;;;0.61;81.63;99977.30;2298540;77;21241;-64
2020/12/20 08:36:00;;;;;;;67.20;28.57;;;;;;;0.68;81.32;99976.43;2298798;77;21261;-64
2020/12/20 08:39:03;;;;;;;;;;;;;;;0.71;81.40;99979.45;2279773;77;21095;-64
2020/12/20 08:42:05;;;;;;;67.75;25.85;;;;;;;0.79;81.17;99975.09;2298845;77;20509;-64
2020/12/20 08:45:07;;;;;;;63.80;26.07;;;;;;;0.90;81.38;99979.80;2299044;77;21254;-64
2020/12/20 08:48:10;;;;;;;66.75;26.73;;;;;;;0.97;81.00;99976.33;2298874;77;21288;-64
2020/12/20 08:51:13;;;;;;;77.53;31.82;;;;;;;0.96;80.93;99977.63;2298415;77;21121;-64
2020/12/20 08:54:15;;;;;;;65.62;27.55;;;;;;;0.91;80.44;99976.36;2298939;77;21317;-64
2020/12/20 08:57:17;;;;;;;70.03;27.82;;;;;;;0.92;81.04;99979.38;2295315;77;21269;-64
2020/12/20 09:00:19;;;;;;;71.60;29.32;;;;;;;0.92;81.04;99979.38;2288885;78;21277;-64
2020/12/20 09:03:21;;;;;;;71.47;29.90;;;;;;;0.96;80.93;99982.80;2260517;78;21277;-64
2020/12/20 09:06:23;;;;;;;67.08;28.80;;;;;;;1.06;81.21;99984.92;2289125;78;21265;-64
2020/12/20 09:09:26;;;;;;;73.30;30.23;;;;;;;1.09;80.78;99983.62;2288548;78;21159;-64
2020/12/20 09:12:28;;;;;;;106.43;48.45;;;;;;;1.00;80.55;99978.05;2288740;78;21689;-64
2020/12/20 09:15:30;;;;;;;71.12;30.77;;;;;;;1.07;80.98;99978.91;2261025;78;21309;-64
2020/12/20 09:18:32;;;;;;;;;;;;;;;1.21;80.62;99981.84;2291218;78;21289;-64
2020/12/20 09:21:35;;;;;;;77.40;31.47;;;;;;;1.14;80.30;99978.86;2288906;78;20119;-64
2020/12/20 09:24:37;;;;;;;77.05;32.55;;;;;;;1.13;80.71;99976.28;2288713;78;21135;-64
2020/12/20 09:27:39;;;;;;;68.05;28.32;;;;;;;1.16;80.64;99976.27;2288802;78;21269;-64
2020/12/20 09:30:41;;;;;;;74.20;29.00;;;;;;;1.30;80.90;99987.84;2288592;78;21143;-64
2020/12/20 09:33:43;;;;;;;64.53;27.15;;;;;;;1.47;80.50;99983.89;2288607;78;21119;-64
2020/12/20 09:36:46;;;;;;;73.17;30.45;;;;;;;1.44;79.89;99980.00;2289071;78;21285;-64
2020/12/20 09:39:48;;;;;;;67.67;29.23;;;;;;;1.47;80.16;99982.59;2288565;78;21122;-64
2020/12/20 09:42:50;;;;;;;65.92;28.50;;;;;;;1.49;80.01;99981.70;2288663;78;21527;-64
2020/12/20 09:45:53;;;;;;;71.05;29.27;;;;;;;1.52;80.05;99984.30;2288427;78;21096;-64
2020/12/20 09:48:55;;;;;;;67.78;27.77;;;;;;;1.62;79.87;99977.77;2288656;78;21257;-64
2020/12/20 09:51:57;;;;;;;69.62;29.27;;;;;;;1.62;79.92;99985.08;2288951;78;21131;-64
2020/12/20 09:54:59;;;;;;;71.40;29.65;;;;;;;1.72;80.08;99987.18;2289051;78;21269;-64
2020/12/20 09:58:02;;;;;;;;;;;;;;;1.75;79.80;99979.39;2291454;78;21265;-64
2020/12/20 10:01:04;;;;;;;68.47;29.45;;;;;;;1.79;79.51;99981.54;2288838;78;20414;-63
2020/12/20 10:04:06;;;;;;;70.42;28.12;;;;;;;1.73;79.31;99975.97;2289041;78;21293;-64
2020/12/20 10:07:08;;;;;;;65.72;27.60;;;;;;;1.63;79.25;99972.58;2288830;78;21276;-64
2020/12/20 10:10:10;;;;;;;68.78;28.92;;;;;;;1.63;79.81;99969.14;2288655;78;21575;-65
2020/12/20 10:13:13;;;;;;;66.70;28.30;;;;;;;1.71;80.02;99969.52;2289062;78;21300;-65
2020/12/20 10:16:15;;;;;;;59.85;26.55;;;;;;;1.79;79.43;99974.62;2288751;78;21234;-64
2020/12/20 10:19:17;;;;;;;67.85;29.37;;;;;;;1.67;78.96;99975.57;2288992;78;21261;-65
2020/12/20 10:22:19;;;;;;;63.95;29.00;;;;;;;1.63;79.24;99975.61;2288469;78;21562;-64
2020/12/20 10:25:21;;;;;;;65.83;28.07;;;;;;;1.58;78.99;99974.35;2259724;78;21289;-64
2020/12/20 10:28:24;;;;;;;67.15;30.23;;;;;;;1.53;79.33;99969.19;2259229;78;21119;-65
2020/12/20 10:31:26;;;;;;;69.12;26.60;;;;;;;1.51;79.66;99979.98;2288700;78;21269;-64
2020/12/20 10:34:28;;;;;;;67.00;27.75;;;;;;;1.48;79.39;99970.08;2288600;78;21606;-64
2020/12/20 10:37:31;;;;;;;60.33;26.37;;;;;;;1.51;79.67;99964.91;2288722;78;21292;-64
2020/12/20 10:40:33;;;;;;;64.32;27.07;;;;;;;1.53;79.26;99967.89;2288643;78;21134;-64
2020/12/20 10:43:35;;;;;;;58.70;25.40;;;;;;;1.45;79.30;99964.51;2288509;78;21139;-64
2020/12/20 10:46:38;;;;;;;63.05;27.73;;;;;;;1.43;79.59;99964.09;2288510;78;21559;-64
2020/12/20 10:49:40;;;;;;;57.65;25.77;;;;;;;1.44;79.79;99965.78;2288922;78;21292;-64
2020/12/20 10:52:43;;;;;;;59.53;24.60;;;;;;;1.56;79.44;99967.02;2288603;78;21555;-64
2020/12/20 10:55:45;;;;;;;59.05;25.48;;;;;;;1.65;79.46;99967.39;2288990;78;21568;-65
2020/12/20 10:58:47;;;;;;;57.10;24.10;;;;;;;1.69;79.54;99964.77;2288489;78;21563;-64
2020/12/20 11:01:49;;;;;;;52.35;22.27;;;;;;;1.73;79.34;99964.33;2288951;78;21289;-65
2020/12/20 11:04:52;;;;;;;52.27;22.73;;;;;;;1.63;79.01;99966.56;2288500;78;21115;-65
2020/12/20 11:07:54;;;;;;;50.33;22.10;;;;;;;1.63;78.99;99969.14;2288638;78;21589;-64
2020/12/20 11:10:56;;;;;;;54.40;23.15;;;;;;;1.49;78.86;99963.59;2288497;78;21183;-64
2020/12/20 11:13:58;;;;;;;57.23;24.72;;;;;;;1.30;79.22;99960.70;2288784;78;21143;-64
2020/12/20 11:17:00;;;;;;;50.98;22.27;;;;;;;1.31;79.71;99958.11;2288928;78;21281;-64
2020/12/20 11:20:02;;;;;;;55.03;23.15;;;;;;;1.24;79.36;99960.30;2288467;78;21131;-64
2020/12/20 11:23:05;;;;;;;50.40;20.88;;;;;;;1.29;79.77;99957.24;2288470;78;21135;-64
2020/12/20 11:26:07;;;;;;;49.45;20.95;;;;;;;1.31;79.35;99965.02;2288848;78;21261;-64
2020/12/20 11:29:10;;;;;;;47.17;19.07;;;;;;;1.24;79.09;99969.34;2288430;78;21265;-64
2020/12/20 11:32:12;;;;;;;46.50;19.82;;;;;;;1.20;79.15;99967.64;2259594;78;21277;-65
2020/12/20 11:35:16;;;;;;;50.90;21.07;;;;;;;1.17;79.29;99966.36;2260486;78;21733;-64
2020/12/20 11:38:19;;;;;;;47.20;20.40;;;;;;;1.23;79.47;99972.79;2288319;78;21284;-64
2020/12/20 11:41:21;;;;;;;54.18;22.07;;;;;;;1.23;78.89;99969.36;2288428;78;21586;-64
2020/12/20 11:44:23;;;;;;;50.88;20.45;;;;;;;1.20;79.24;99970.22;2288459;78;21115;-64
2020/12/20 11:47:25;;;;;;;60.43;25.75;;;;;;;1.26;79.15;99971.48;2288673;78;21574;-64
2020/12/20 11:50:27;;;;;;;46.30;21.75;;;;;;;1.30;79.42;99969.75;2288676;78;21158;-64
2020/12/20 11:53:30;;;;;;;56.48;24.00;;;;;;;1.40;79.11;99971.42;2260379;78;21123;-64
2020/12/20 11:56:32;;;;;;;55.20;23.85;;;;;;;1.51;79.20;99973.52;2260490;78;21721;-64
2020/12/20 11:59:34;;;;;;;57.78;24.92;;;;;;;1.58;78.97;99978.64;2296863;77;21281;-64
2020/12/20 12:02:36;;;;;;;56.50;24.15;;;;;;;1.58;78.31;99972.17;2298625;77;21676;-64
2020/12/20 12:05:39;;;;;;;58.02;25.27;;;;;;;1.53;78.79;99974.36;2298369;77;21708;-64
2020/12/20 12:08:43;;;;;;;71.22;32.08;;;;;;;1.48;78.64;99970.95;2298726;77;21269;-64
2020/12/20 12:11:45;;;;;;;60.35;25.68;;;;;;;1.60;78.86;99975.19;2298255;77;21261;-64
2020/12/20 12:14:47;;;;;;;52.83;23.50;;;;;;;1.65;78.46;99972.56;2298468;77;21570;-64
2020/12/20 12:17:50;;;;;;;53.15;23.42;;;;;;;1.56;78.20;99967.02;2298828;77;21269;-64
2020/12/20 12:20:52;;;;;;;52.78;23.70;;;;;;;1.48;78.36;99965.78;2298604;77;21273;-64
2020/12/20 12:23:54;;;;;;;56.95;24.77;;;;;;;1.47;78.77;99969.67;2298755;77;21261;-64
2020/12/20 12:26:56;;;;;;;64.58;29.77;;;;;;;1.48;78.63;99973.95;2298417;77;21724;-64
2020/12/20 12:29:58;;;;;;;53.55;23.22;;;;;;;1.63;78.97;99974.31;2276914;77;21272;-65
2020/12/20 12:33:00;;;;;;;57.00;25.10;;;;;;;1.65;78.51;99971.27;2298502;77;21693;-65
2020/12/20 12:36:05;;;;;;;59.85;26.62;;;;;;;1.65;78.83;99975.16;2298325;77;21252;-64
2020/12/20 12:39:09;;;;;;;63.87;28.83;;;;;;;1.69;78.78;99982.03;2298390;77;21268;-65
2020/12/20 12:42:11;;;;;;;63.05;29.05;;;;;;;1.72;78.98;99987.18;2298300;77;21712;-64
2020/12/20 12:45:14;;;;;;;58.05;26.70;;;;;;;1.78;78.59;99987.58;2277036;77;21272;-65
2020/12/20 12:48:16;;;;;;;57.40;25.25;;;;;;;1.82;78.50;99984.10;2298356;77;21181;-65
2020/12/20 12:51:18;;;;;;;60.92;28.35;;;;;;;1.57;78.70;99948.05;2298679;77;21265;-65
2020/12/20 12:54:20;;;;;;;52.62;23.60;;;;;;;1.89;78.72;99974.98;2299021;77;21276;-65
2020/12/20 12:57:23;;;;;;;53.75;22.40;;;;;;;1.90;78.73;99977.16;2298744;77;21712;-66
2020/12/20 13:00:28;;;;;;;55.45;23.50;;;;;;;1.92;78.04;99971.52;2298736;77;21264;-65
2020/12/20 13:03:30;;;;;;;55.05;25.85;;;;;;;1.89;78.52;99976.27;2298701;77;21186;-65
2020/12/20 13:06:32;;;;;;;51.28;24.05;;;;;;;1.92;78.62;99972.81;2298831;77;21558;-64
2020/12/20 13:09:34;;;;;;;54.08;22.35;;;;;;;1.95;78.45;99970.20;2298983;77;21272;-65
2020/12/20 13:12:37;;;;;;;51.77;22.60;;;;;;;1.90;78.43;99973.27;2299020;77;21261;-64
2020/12/20 13:15:39;;;;;;;53.63;21.50;;;;;;;1.89;78.54;99970.25;2275973;77;21253;-65
2020/12/20 13:18:41;;;;;;;51.75;21.20;;;;;;;1.88;78.71;99970.70;2298495;77;21103;-65
2020/12/20 13:21:43;;;;;;;53.13;22.85;;;;;;;1.86;78.60;99968.54;2298907;77;21269;-65
2020/12/20 13:24:45;;;;;;;50.23;22.20;;;;;;;1.81;78.64;99967.73;2298536;77;21127;-65
2020/12/20 13:27:48;;;;;;;51.48;23.18;;;;;;;1.81;78.83;99975.91;2298841;77;21269;-64
2020/12/20 13:30:50;;;;;;;52.08;22.75;;;;;;;1.78;78.75;99970.76;2298583;77;21122;-65
2020/12/20 13:33:52;;;;;;;51.10;21.70;;;;;;;1.85;78.96;99964.67;2277200;77;21284;-64
2020/12/20 13:36:54;;;;;;;51.42;21.57;;;;;;;1.93;78.75;99970.66;2298741;77;21253;-64
2020/12/20 13:39:56;;;;;;;57.08;23.35;;;;;;;1.81;78.53;99961.27;2299007;77;21249;-65
2020/12/20 13:42:59;;;;;;;56.80;23.18;;;;;;;1.80;78.75;99959.98;2298747;77;21709;-64
2020/12/20 13:46:01;;;;;;;56.63;23.12;;;;;;;1.78;78.74;99961.30;2298474;77;21260;-65
2020/12/20 13:49:03;;;;;;;54.00;22.80;;;;;;;1.75;78.65;99959.14;2298455;77;21280;-65
2020/12/20 13:52:05;;;;;;;57.55;24.60;;;;;;;1.56;79.13;99954.09;2298588;77;21713;-65
2020/12/20 13:55:07;;;;;;;59.13;25.70;;;;;;;1.56;79.13;99954.09;2298985;77;21260;-65
2020/12/20 13:58:09;;;;;;;57.27;23.77;;;;;;;1.64;79.40;99961.78;2298467;77;21126;-64
2020/12/20 14:01:12;;;;;;;64.80;24.92;;;;;;;1.71;79.25;99957.88;2299005;77;21265;-64
2020/12/20 14:04:14;;;;;;;59.40;24.35;;;;;;;1.72;79.16;99957.02;2298758;77;21277;-64
2020/12/20 14:07:16;;;;;;;57.83;23.45;;;;;;;1.65;79.18;99955.34;2298434;77;21296;-65
2020/12/20 14:10:18;;;;;;;57.67;24.25;;;;;;;1.64;79.56;99956.61;2298589;77;21131;-64